createdAt,value
2022-10-28T00:02:11.640Z,19.45
2022-10-28T00:05:17.090Z,19.10
2022-10-28T00:08:23.597Z,12.03
2022-10-28T00:11:42.558Z,23.60
2022-10-28T00:14:49.311Z,15.03
2022-10-28T00:17:55.166Z,12.70
2022-10-28T00:21:01.645Z,15.72
2022-10-28T00:24:07.364Z,13.28
2022-10-28T00:27:12.968Z,15.72
2022-10-28T00:30:20.846Z,14.13
2022-10-28T00:33:26.998Z,19.75
2022-10-28T00:36:36.263Z,17.05
2022-10-28T00:39:41.976Z,12.88
2022-10-28T00:42:48.504Z,14.00
2022-10-28T00:45:54.673Z,14.50
2022-10-28T00:49:04.336Z,13.43
2022-10-28T00:52:24.279Z,14.87
2022-10-28T00:55:23.366Z,13.62
2022-10-28T00:58:29.866Z,16.25
2022-10-28T01:01:35.298Z,13.70
2022-10-28T01:04:43.208Z,18.50
2022-10-28T01:07:48.793Z,14.05
2022-10-28T01:11:34.526Z,16.93
2022-10-28T01:15:15.592Z,12.55
2022-10-28T01:18:34.978Z,14.45
2022-10-28T01:22:03.031Z,14.23
2022-10-28T01:25:47.250Z,13.10
2022-10-28T01:29:04.556Z,18.07
2022-10-28T01:32:20.944Z,15.18
2022-10-28T01:35:38.124Z,13.53
2022-10-28T01:39:06.123Z,9.23
2022-10-28T01:42:24.620Z,16.02
2022-10-28T01:45:40.159Z,13.65
2022-10-28T01:49:05.877Z,15.18
2022-10-28T01:52:09.589Z,11.68
2022-10-28T01:55:30.418Z,10.88
2022-10-28T01:58:40.499Z,9.30
2022-10-28T02:01:46.833Z,13.18
2022-10-28T02:04:53.164Z,13.93
2022-10-28T02:07:59.512Z,12.58
2022-10-28T02:11:40.771Z,9.75
2022-10-28T02:15:20.202Z,10.80
2022-10-28T02:18:43.174Z,12.07
2022-10-28T02:22:00.154Z,10.20
2022-10-28T02:25:25.047Z,11.78
2022-10-28T02:28:38.488Z,11.40
2022-10-28T02:31:52.131Z,17.15
2022-10-28T02:35:00.555Z,10.20
2022-10-28T02:38:07.105Z,10.00
2022-10-28T02:41:16.956Z,14.90
2022-10-28T02:47:34.323Z,14.10
2022-10-28T02:50:48.938Z,15.05
2022-10-28T02:54:21.388Z,10.70
2022-10-28T02:57:36.470Z,14.60
2022-10-28T03:00:42.025Z,11.65
2022-10-28T03:03:48.342Z,13.32
2022-10-28T03:06:57.344Z,10.48
2022-10-28T03:10:03.546Z,12.45
2022-10-28T03:13:09.867Z,11.08
2022-10-28T03:16:15.149Z,14.35
2022-10-28T03:19:14.281Z,8.80
2022-10-28T03:22:20.604Z,11.08
2022-10-28T03:25:19.278Z,13.65
2022-10-28T03:28:04.875Z,12.28
2022-10-28T03:30:57.468Z,11.15
2022-10-28T03:33:50.203Z,9.38
2022-10-28T03:36:56.011Z,10.78
2022-10-28T03:40:01.721Z,14.35
2022-10-28T03:43:07.838Z,13.38
2022-10-28T03:46:14.758Z,13.93
2022-10-28T03:49:20.978Z,15.53
2022-10-28T03:52:26.419Z,11.50
2022-10-28T03:55:34.227Z,16.40
2022-10-28T03:58:41.242Z,16.00
2022-10-28T04:01:46.869Z,12.63
2022-10-28T04:04:53.324Z,18.50
2022-10-28T04:08:00.571Z,17.40
2022-10-28T04:11:06.411Z,16.10
2022-10-28T04:14:13.471Z,10.38
2022-10-28T04:17:19.391Z,9.43
2022-10-28T04:20:25.297Z,16.20
2022-10-28T04:23:31.718Z,19.30
2022-10-28T04:26:38.259Z,15.10
2022-10-28T04:29:44.188Z,14.70
2022-10-28T04:32:49.525Z,12.18
2022-10-28T04:35:55.459Z,14.85
2022-10-28T04:39:01.752Z,13.50
2022-10-28T04:42:08.264Z,11.70
2022-10-28T04:45:13.044Z,12.90
2022-10-28T04:48:18.665Z,11.60
2022-10-28T04:51:23.475Z,19.07
2022-10-28T04:54:29.636Z,14.38
2022-10-28T04:57:34.761Z,14.28
2022-10-28T05:00:40.419Z,11.03
2022-10-28T05:03:45.783Z,16.05
2022-10-28T05:06:52.412Z,13.62
2022-10-28T05:09:52.069Z,11.28
2022-10-28T05:13:00.098Z,12.98
2022-10-28T05:16:05.892Z,12.78
2022-10-28T05:19:13.813Z,16.52
2022-10-28T05:22:20.436Z,17.25
2022-10-28T05:25:27.603Z,11.50
2022-10-28T05:28:33.510Z,11.12
2022-10-28T05:31:39.296Z,14.38
2022-10-28T05:34:45.202Z,14.98
2022-10-28T05:37:51.712Z,11.25
2022-10-28T05:40:58.761Z,11.05
2022-10-28T05:44:05.532Z,11.25
2022-10-28T05:47:11.223Z,14.45
2022-10-28T05:50:17.052Z,8.13
2022-10-28T05:53:23.100Z,10.65
2022-10-28T05:56:29.120Z,10.85
2022-10-28T05:59:34.147Z,11.50
2022-10-28T06:02:40.606Z,12.13
2022-10-28T06:05:40.170Z,11.48
2022-10-28T06:08:46.835Z,11.65
2022-10-28T06:11:50.704Z,11.93
2022-10-28T06:14:56.104Z,8.43
2022-10-28T06:18:04.787Z,9.70
2022-10-28T06:21:11.716Z,13.00
2022-10-28T06:24:17.385Z,10.75
2022-10-28T06:27:22.988Z,13.72
2022-10-28T06:30:28.685Z,11.38
2022-10-28T06:33:35.431Z,10.38
2022-10-28T06:36:40.964Z,13.00
2022-10-28T06:39:43.328Z,14.10
2022-10-28T06:42:48.306Z,12.55
2022-10-28T06:45:55.940Z,13.85
2022-10-28T06:49:04.151Z,22.27
2022-10-28T06:52:09.915Z,10.90
2022-10-28T06:55:14.780Z,12.93
2022-10-28T06:58:20.831Z,16.75
2022-10-28T07:01:26.951Z,9.93
2022-10-28T07:04:33.044Z,13.90
2022-10-28T07:07:32.303Z,11.68
2022-10-28T07:13:44.365Z,10.48
2022-10-28T07:16:50.928Z,17.12
2022-10-28T07:19:57.624Z,14.15
2022-10-28T07:23:05.758Z,10.93
2022-10-28T07:26:11.085Z,15.98
2022-10-28T07:29:17.485Z,10.93
2022-10-28T07:32:26.056Z,12.10
2022-10-28T07:35:31.860Z,12.75
2022-10-28T07:38:37.778Z,15.85
2022-10-28T07:41:43.547Z,19.37
2022-10-28T07:44:51.502Z,12.80
2022-10-28T07:47:59.017Z,9.98
2022-10-28T07:51:04.878Z,12.80
2022-10-28T07:54:11.713Z,9.13
2022-10-28T07:57:18.674Z,10.18
2022-10-28T08:00:26.023Z,14.30
2022-10-28T08:03:38.660Z,8.25
2022-10-28T08:06:40.956Z,16.00
2022-10-28T08:09:47.963Z,6.60
2022-10-28T08:12:55.533Z,15.05
2022-10-28T08:16:10.338Z,14.47
2022-10-28T08:19:17.030Z,13.90
2022-10-28T08:22:23.720Z,8.10
2022-10-28T08:25:31.309Z,9.43
2022-10-28T08:28:37.736Z,9.40
2022-10-28T08:31:45.569Z,6.00
2022-10-28T08:34:52.673Z,10.58
2022-10-28T08:37:58.170Z,7.20
2022-10-28T08:41:43.490Z,8.63
2022-10-28T08:45:20.499Z,7.08
2022-10-28T08:48:46.034Z,8.00
2022-10-28T08:52:11.428Z,6.78
2022-10-28T08:55:28.910Z,6.35
2022-10-28T08:58:44.481Z,7.03
2022-10-28T09:02:03.794Z,6.80
2022-10-28T09:05:33.849Z,6.22
2022-10-28T09:08:42.257Z,5.12
2022-10-28T09:12:22.637Z,5.37
2022-10-28T09:15:53.970Z,7.10
2022-10-28T09:19:14.096Z,6.62
2022-10-28T09:22:39.991Z,10.20
2022-10-28T09:26:15.856Z,4.58
2022-10-28T09:29:44.301Z,11.57
2022-10-28T09:33:15.067Z,4.70
2022-10-28T09:36:28.218Z,7.35
2022-10-28T09:39:45.671Z,5.33
2022-10-28T09:42:54.813Z,8.23
2022-10-28T09:46:02.099Z,7.50
2022-10-28T09:49:08.457Z,8.43
2022-10-28T09:52:40.189Z,4.80
2022-10-28T09:58:49.108Z,7.65
2022-10-28T10:01:54.841Z,5.55
2022-10-28T10:05:01.788Z,5.50
2022-10-28T10:08:17.931Z,6.00
2022-10-28T10:11:27.759Z,4.03
2022-10-28T10:14:45.807Z,8.58
2022-10-28T10:17:59.479Z,7.75
2022-10-28T10:21:07.974Z,8.23
2022-10-28T10:24:13.944Z,3.15
2022-10-28T10:27:35.458Z,5.10
2022-10-28T10:30:53.033Z,3.93
2022-10-28T10:33:59.002Z,7.87
2022-10-28T10:37:08.789Z,5.83
2022-10-28T10:40:42.460Z,10.98
2022-10-28T10:43:49.987Z,12.30
2022-10-28T10:46:56.211Z,5.22
2022-10-28T10:50:03.601Z,9.33
2022-10-28T10:53:12.408Z,10.05
2022-10-28T10:56:22.540Z,9.18
2022-10-28T11:02:55.799Z,8.48
2022-10-28T11:06:24.597Z,12.58
2022-10-28T11:09:21.231Z,16.57
2022-10-28T11:12:43.104Z,24.57
2022-10-28T11:15:50.878Z,10.82
2022-10-28T11:19:07.420Z,13.32
2022-10-28T11:22:43.428Z,13.15
2022-10-28T11:25:54.597Z,12.55
2022-10-28T11:29:23.883Z,17.90
2022-10-28T11:33:08.127Z,10.45
2022-10-28T11:36:26.420Z,9.13
2022-10-28T11:39:56.142Z,12.23
2022-10-28T11:43:22.377Z,12.80
2022-10-28T11:47:03.983Z,7.10
2022-10-28T11:50:36.857Z,11.00
2022-10-28T11:53:51.891Z,7.60
2022-10-28T11:57:02.567Z,7.00
2022-10-28T12:00:38.355Z,9.08
2022-10-28T12:04:27.480Z,9.08
2022-10-28T12:07:44.830Z,7.35
2022-10-28T12:11:29.095Z,5.58
2022-10-28T12:14:52.322Z,9.05
2022-10-28T12:18:14.097Z,10.15
2022-10-28T12:21:28.759Z,8.48
2022-10-28T12:24:36.709Z,7.35
2022-10-28T12:27:52.001Z,5.70
2022-10-28T12:30:57.067Z,7.33
2022-10-28T12:34:06.809Z,4.72
2022-10-28T12:40:39.728Z,5.87
2022-10-28T12:44:06.571Z,7.40
2022-10-28T12:47:44.290Z,5.05
2022-10-28T12:50:59.436Z,7.83
2022-10-28T12:54:26.795Z,5.12
2022-10-28T12:57:32.243Z,8.15
2022-10-28T13:00:40.862Z,5.15
2022-10-28T13:03:46.375Z,6.58
2022-10-28T13:07:23.340Z,5.03
2022-10-28T13:10:38.650Z,4.40
2022-10-28T13:14:03.709Z,6.30
2022-10-28T13:17:46.263Z,3.70
2022-10-28T13:21:23.802Z,7.53
2022-10-28T13:24:46.645Z,4.50
2022-10-28T13:27:52.553Z,5.62
2022-10-28T13:31:21.894Z,5.85
2022-10-28T13:34:29.110Z,5.25
2022-10-28T13:37:35.931Z,5.87
2022-10-28T13:40:44.794Z,9.50
2022-10-28T13:43:41.082Z,10.50
2022-10-28T13:47:11.085Z,7.80
2022-10-28T13:50:29.819Z,9.13
2022-10-28T13:54:03.809Z,9.65
2022-10-28T13:57:09.059Z,6.45
2022-10-28T14:00:19.577Z,4.85
2022-10-28T14:03:41.472Z,3.95
2022-10-28T14:06:47.776Z,3.98
2022-10-28T14:09:53.489Z,4.00
2022-10-28T14:13:02.202Z,5.35
2022-10-28T14:16:34.501Z,4.17
2022-10-28T14:19:41.112Z,3.52
2022-10-28T14:22:50.647Z,6.90
2022-10-28T14:26:06.350Z,4.53
2022-10-28T14:29:11.472Z,4.75
2022-10-28T14:32:22.066Z,4.53
2022-10-28T14:35:32.696Z,3.25
2022-10-28T14:38:55.243Z,5.58
2022-10-28T14:42:36.618Z,10.18
2022-10-28T14:46:01.116Z,5.65
2022-10-28T14:49:14.031Z,4.45
2022-10-28T14:52:32.947Z,3.98
2022-10-28T14:55:44.745Z,7.62
2022-10-28T14:58:53.370Z,9.20
2022-10-28T15:02:31.143Z,8.63
2022-10-28T15:05:37.056Z,8.48
2022-10-28T15:08:42.875Z,9.48
2022-10-28T15:11:49.181Z,9.70
2022-10-28T15:15:05.863Z,16.42
2022-10-28T15:18:12.504Z,23.45
2022-10-28T15:21:26.354Z,13.72
2022-10-28T15:24:26.619Z,8.68
2022-10-28T15:27:14.308Z,7.35
2022-10-28T15:30:06.616Z,8.68
2022-10-28T15:32:58.972Z,8.30
2022-10-28T15:36:05.019Z,17.62
2022-10-28T15:39:25.076Z,39.48
2022-10-28T15:42:58.816Z,72.27
2022-10-28T15:46:04.998Z,103.38
2022-10-28T15:49:12.813Z,174.07
2022-10-28T15:52:40.870Z,188.80
2022-10-28T15:59:00.998Z,42.35
2022-10-28T16:02:08.697Z,12.88
2022-10-28T16:05:14.167Z,9.28
2022-10-28T16:08:32.688Z,6.05
2022-10-28T16:11:38.493Z,7.40
2022-10-28T16:15:09.326Z,6.45
2022-10-28T16:18:16.692Z,4.80
2022-10-28T16:21:15.118Z,12.73
2022-10-28T16:24:21.714Z,8.90
2022-10-28T16:27:33.515Z,8.03
2022-10-28T16:30:38.926Z,28.60
2022-10-28T16:33:49.115Z,21.20
2022-10-28T16:36:54.929Z,22.45
2022-10-28T16:40:00.096Z,11.97
2022-10-28T16:43:08.686Z,11.57
2022-10-28T16:46:16.379Z,29.27
2022-10-28T16:49:21.971Z,37.83
2022-10-28T16:52:26.592Z,14.33
2022-10-28T16:55:34.765Z,12.30
2022-10-28T16:58:42.185Z,15.50
2022-10-28T17:01:48.999Z,6.90
2022-10-28T17:04:55.588Z,9.33
2022-10-28T17:08:07.329Z,8.13
2022-10-28T17:11:11.624Z,12.10
2022-10-28T17:14:18.094Z,7.37
2022-10-28T17:17:23.322Z,9.55
2022-10-28T17:20:30.837Z,9.43
2022-10-28T17:23:37.536Z,11.30
2022-10-28T17:26:44.241Z,9.75
2022-10-28T17:29:49.254Z,8.35
2022-10-28T17:32:55.928Z,8.75
2022-10-28T17:36:02.330Z,6.80
2022-10-28T17:39:10.119Z,14.23
2022-10-28T17:42:16.183Z,11.22
2022-10-28T17:45:22.768Z,10.40
2022-10-28T17:48:29.457Z,9.43
2022-10-28T17:51:37.835Z,17.07
2022-10-28T17:54:44.206Z,17.15
2022-10-28T17:57:53.081Z,37.05
2022-10-28T18:01:00.316Z,14.47
2022-10-28T18:04:06.226Z,19.23
2022-10-28T18:07:12.882Z,37.15
2022-10-28T18:10:20.317Z,15.23
2022-10-28T18:13:26.633Z,10.15
2022-10-28T18:16:34.585Z,19.60
2022-10-28T18:19:40.129Z,21.37
2022-10-28T18:22:46.686Z,28.15
2022-10-28T18:25:53.080Z,14.93
2022-10-28T18:28:59.525Z,13.10
2022-10-28T18:32:04.705Z,23.20
2022-10-28T18:35:10.546Z,22.65
2022-10-28T18:38:15.619Z,25.17
2022-10-28T18:41:33.453Z,16.65
2022-10-28T18:44:38.619Z,22.55
2022-10-28T18:47:43.848Z,17.70
2022-10-28T18:50:50.332Z,19.60
2022-10-28T18:54:02.334Z,14.13
2022-10-28T18:57:08.244Z,15.78
2022-10-28T19:00:19.156Z,16.20
2022-10-28T19:03:23.699Z,18.82
2022-10-28T19:06:30.991Z,10.85
2022-10-28T19:09:37.343Z,14.75
2022-10-28T19:12:45.984Z,13.53
2022-10-28T19:15:50.758Z,15.32
2022-10-28T19:18:58.425Z,18.17
2022-10-28T19:22:04.301Z,17.00
2022-10-28T19:25:10.241Z,13.25
2022-10-28T19:28:17.719Z,16.55
2022-10-28T19:31:26.630Z,11.30
2022-10-28T19:34:25.597Z,11.37
2022-10-28T19:37:18.232Z,13.05
2022-10-28T19:40:23.936Z,15.83
2022-10-28T19:43:30.678Z,14.90
2022-10-28T19:46:35.622Z,15.20
2022-10-28T19:49:44.278Z,13.28
2022-10-28T19:52:42.714Z,12.98
2022-10-28T19:55:49.281Z,11.28
2022-10-28T19:58:56.813Z,19.07
2022-10-28T20:02:02.729Z,10.20
2022-10-28T20:05:09.904Z,9.50
2022-10-28T20:08:16.926Z,11.80
2022-10-28T20:11:26.236Z,13.75
2022-10-28T20:14:31.417Z,11.97
2022-10-28T20:17:38.081Z,11.15
2022-10-28T20:20:44.410Z,14.73
2022-10-28T20:26:56.501Z,10.48
2022-10-28T20:30:03.628Z,8.28
2022-10-28T20:33:08.984Z,12.63
2022-10-28T20:36:14.851Z,11.63
2022-10-28T20:39:25.567Z,8.08
2022-10-28T20:42:24.564Z,9.68
2022-10-28T20:45:30.313Z,10.58
2022-10-28T20:48:37.220Z,12.37
2022-10-28T20:51:45.005Z,9.35
2022-10-28T20:54:49.699Z,10.32
2022-10-28T20:57:55.303Z,14.58
2022-10-28T21:01:00.808Z,10.40
2022-10-28T21:04:08.636Z,8.70
2022-10-28T21:07:15.527Z,9.93
2022-10-28T21:10:23.701Z,8.53
2022-10-28T21:13:32.043Z,9.28
2022-10-28T21:16:37.439Z,9.35
2022-10-28T21:19:44.857Z,12.90
2022-10-28T21:22:50.880Z,8.33
2022-10-28T21:25:51.324Z,12.98
2022-10-28T21:28:58.829Z,7.78
2022-10-28T21:32:05.245Z,6.42
2022-10-28T21:35:11.375Z,5.92
2022-10-28T21:38:18.130Z,9.38
2022-10-28T21:41:33.659Z,6.78
2022-10-28T21:44:38.502Z,11.22
2022-10-28T21:47:44.307Z,8.05
2022-10-28T21:50:49.861Z,7.67
2022-10-28T21:53:56.067Z,7.20
2022-10-28T21:56:57.901Z,9.10
2022-10-28T21:59:57.866Z,8.03
2022-10-28T22:03:05.874Z,9.40
2022-10-28T22:06:11.150Z,7.85
2022-10-28T22:09:17.538Z,8.30
2022-10-28T22:12:24.460Z,5.30
2022-10-28T22:15:30.956Z,6.78
2022-10-28T22:18:36.550Z,6.97
2022-10-28T22:21:47.982Z,7.87
2022-10-28T22:24:53.710Z,7.50
2022-10-28T22:27:59.533Z,6.67
2022-10-28T22:31:05.145Z,12.65
2022-10-28T22:34:12.997Z,7.22
2022-10-28T22:37:18.816Z,7.83
2022-10-28T22:40:25.443Z,9.30
2022-10-28T22:43:31.118Z,8.88
2022-10-28T22:46:38.188Z,5.72
2022-10-28T22:49:43.365Z,6.17
2022-10-28T22:52:49.609Z,7.05
2022-10-28T22:55:56.348Z,7.87
2022-10-28T22:59:03.861Z,6.42
2022-10-28T23:02:09.881Z,10.28
2022-10-28T23:05:15.960Z,7.87
2022-10-28T23:08:22.563Z,6.50
2022-10-28T23:11:28.150Z,10.88
2022-10-28T23:14:34.245Z,7.78
2022-10-28T23:17:39.522Z,6.60
2022-10-28T23:20:44.582Z,7.05
2022-10-28T23:23:53.942Z,13.53
2022-10-28T23:27:00.565Z,7.92
2022-10-28T23:30:05.944Z,10.28
2022-10-28T23:33:12.834Z,10.58
2022-10-28T23:36:11.793Z,8.63
2022-10-28T23:39:19.438Z,10.85
2022-10-28T23:42:26.144Z,9.50
2022-10-28T23:45:31.748Z,9.85
2022-10-28T23:48:37.741Z,12.73
2022-10-28T23:51:37.364Z,13.40
2022-10-28T23:54:44.759Z,7.33
2022-10-28T23:57:51.325Z,8.23
